sensor_id;sensor_type;location;lat;lon;timestamp;temperature;humidity
3067;DHT22;1544;48.834;9.194;2022-11-20T00:00:16;7.50;65.10
3067;DHT22;1544;48.834;9.194;2022-11-20T00:02:51;7.50;65.40
3067;DHT22;1544;48.834;9.194;2022-11-20T00:05:26;7.50;65.30
3067;DHT22;1544;48.834;9.194;2022-11-20T00:08:01;7.50;65.50
3067;DHT22;1544;48.834;9.194;2022-11-20T00:10:37;7.50;65.50
3067;DHT22;1544;48.834;9.194;2022-11-20T00:13:12;7.50;66.00
3067;DHT22;1544;48.834;9.194;2022-11-20T00:15:47;7.50;65.90
3067;DHT22;1544;48.834;9.194;2022-11-20T00:18:22;7.50;65.90
3067;DHT22;1544;48.834;9.194;2022-11-20T00:21:02;7.50;66.20
3067;DHT22;1544;48.834;9.194;2022-11-20T00:23:41;7.50;66.20
3067;DHT22;1544;48.834;9.194;2022-11-20T00:26:18;7.50;66.20
3067;DHT22;1544;48.834;9.194;2022-11-20T00:28:58;7.50;66.20
3067;DHT22;1544;48.834;9.194;2022-11-20T00:31:35;7.50;66.20
3067;DHT22;1544;48.834;9.194;2022-11-20T00:34:10;7.50;66.30
3067;DHT22;1544;48.834;9.194;2022-11-20T00:36:45;7.50;66.40
3067;DHT22;1544;48.834;9.194;2022-11-20T00:39:20;7.50;66.60
3067;DHT22;1544;48.834;9.194;2022-11-20T00:41:55;7.50;66.70
3067;DHT22;1544;48.834;9.194;2022-11-20T00:44:30;7.50;66.90
3067;DHT22;1544;48.834;9.194;2022-11-20T00:47:05;7.50;67.00
3067;DHT22;1544;48.834;9.194;2022-11-20T00:49:40;7.50;67.20
3067;DHT22;1544;48.834;9.194;2022-11-20T00:52:15;7.50;67.30
3067;DHT22;1544;48.834;9.194;2022-11-20T00:54:50;7.50;67.30
3067;DHT22;1544;48.834;9.194;2022-11-20T00:57:25;7.50;67.30
3067;DHT22;1544;48.834;9.194;2022-11-20T01:00:00;7.50;67.30
3067;DHT22;1544;48.834;9.194;2022-11-20T01:02:35;7.50;67.40
3067;DHT22;1544;48.834;9.194;2022-11-20T01:05:10;7.50;67.50
3067;DHT22;1544;48.834;9.194;2022-11-20T01:07:45;7.50;67.50
3067;DHT22;1544;48.834;9.194;2022-11-20T01:10:20;7.50;67.50
3067;DHT22;1544;48.834;9.194;2022-11-20T01:12:55;7.50;67.50
3067;DHT22;1544;48.834;9.194;2022-11-20T01:15:48;7.50;67.50
3067;DHT22;1544;48.834;9.194;2022-11-20T01:18:23;7.40;67.50
3067;DHT22;1544;48.834;9.194;2022-11-20T01:21:06;7.40;67.50
3067;DHT22;1544;48.834;9.194;2022-11-20T01:23:46;7.40;67.50
3067;DHT22;1544;48.834;9.194;2022-11-20T01:26:28;7.40;67.60
3067;DHT22;1544;48.834;9.194;2022-11-20T01:29:06;7.40;67.80
3067;DHT22;1544;48.834;9.194;2022-11-20T01:31:42;7.40;67.80
3067;DHT22;1544;48.834;9.194;2022-11-20T01:34:19;7.40;67.90
3067;DHT22;1544;48.834;9.194;2022-11-20T01:36:56;7.30;67.80
3067;DHT22;1544;48.834;9.194;2022-11-20T01:39:31;7.30;67.80
3067;DHT22;1544;48.834;9.194;2022-11-20T01:42:07;7.20;67.70
3067;DHT22;1544;48.834;9.194;2022-11-20T01:45:01;7.20;67.70
3067;DHT22;1544;48.834;9.194;2022-11-20T01:47:43;7.20;67.80
3067;DHT22;1544;48.834;9.194;2022-11-20T01:50:24;7.20;68.00
3067;DHT22;1544;48.834;9.194;2022-11-20T01:53:08;7.20;68.20
3067;DHT22;1544;48.834;9.194;2022-11-20T01:55:49;7.20;68.40
3067;DHT22;1544;48.834;9.194;2022-11-20T01:58:31;7.20;68.50
3067;DHT22;1544;48.834;9.194;2022-11-20T02:01:07;7.10;68.70
3067;DHT22;1544;48.834;9.194;2022-11-20T02:03:44;7.10;69.10
3067;DHT22;1544;48.834;9.194;2022-11-20T02:06:32;7.10;69.50
3067;DHT22;1544;48.834;9.194;2022-11-20T02:09:10;7.10;69.50
3067;DHT22;1544;48.834;9.194;2022-11-20T02:11:46;7.20;69.70
3067;DHT22;1544;48.834;9.194;2022-11-20T02:14:22;7.10;69.50
3067;DHT22;1544;48.834;9.194;2022-11-20T02:16:58;7.10;70.00
3067;DHT22;1544;48.834;9.194;2022-11-20T02:19:32;7.10;70.00
3067;DHT22;1544;48.834;9.194;2022-11-20T02:22:14;7.10;70.10
3067;DHT22;1544;48.834;9.194;2022-11-20T02:24:56;7.20;70.20
3067;DHT22;1544;48.834;9.194;2022-11-20T02:27:34;7.20;70.10
3067;DHT22;1544;48.834;9.194;2022-11-20T02:30:09;7.30;70.20
3067;DHT22;1544;48.834;9.194;2022-11-20T02:32:45;7.20;70.00
3067;DHT22;1544;48.834;9.194;2022-11-20T02:37:57;7.30;69.70
3067;DHT22;1544;48.834;9.194;2022-11-20T02:40:34;7.30;69.40
3067;DHT22;1544;48.834;9.194;2022-11-20T02:43:09;7.40;68.40
3067;DHT22;1544;48.834;9.194;2022-11-20T02:45:44;7.40;67.80
3067;DHT22;1544;48.834;9.194;2022-11-20T02:48:19;7.40;66.90
3067;DHT22;1544;48.834;9.194;2022-11-20T02:50:54;7.40;65.70
3067;DHT22;1544;48.834;9.194;2022-11-20T02:53:29;7.40;64.00
3067;DHT22;1544;48.834;9.194;2022-11-20T02:56:04;7.40;62.20
3067;DHT22;1544;48.834;9.194;2022-11-20T02:58:39;7.50;61.10
3067;DHT22;1544;48.834;9.194;2022-11-20T03:01:14;7.40;60.60
3067;DHT22;1544;48.834;9.194;2022-11-20T03:03:49;7.50;60.20
3067;DHT22;1544;48.834;9.194;2022-11-20T03:06:24;7.50;59.30
3067;DHT22;1544;48.834;9.194;2022-11-20T03:08:59;7.50;58.00
3067;DHT22;1544;48.834;9.194;2022-11-20T03:11:34;7.50;57.00
3067;DHT22;1544;48.834;9.194;2022-11-20T03:14:09;7.50;55.90
3067;DHT22;1544;48.834;9.194;2022-11-20T03:16:44;7.50;55.70
3067;DHT22;1544;48.834;9.194;2022-11-20T03:19:19;7.50;55.90
3067;DHT22;1544;48.834;9.194;2022-11-20T03:21:55;7.50;56.10
3067;DHT22;1544;48.834;9.194;2022-11-20T03:24:30;7.50;55.30
3067;DHT22;1544;48.834;9.194;2022-11-20T03:27:05;7.50;54.70
3067;DHT22;1544;48.834;9.194;2022-11-20T03:29:39;7.50;54.30
3067;DHT22;1544;48.834;9.194;2022-11-20T03:32:14;7.50;53.30
3067;DHT22;1544;48.834;9.194;2022-11-20T03:34:49;7.50;52.40
3067;DHT22;1544;48.834;9.194;2022-11-20T03:37:24;7.50;51.90
3067;DHT22;1544;48.834;9.194;2022-11-20T03:39:59;7.50;51.90
3067;DHT22;1544;48.834;9.194;2022-11-20T03:42:34;7.50;51.70
3067;DHT22;1544;48.834;9.194;2022-11-20T03:45:21;7.50;51.30
3067;DHT22;1544;48.834;9.194;2022-11-20T03:47:56;7.50;51.60
3067;DHT22;1544;48.834;9.194;2022-11-20T03:50:31;7.50;51.90
3067;DHT22;1544;48.834;9.194;2022-11-20T03:53:06;7.50;51.80
3067;DHT22;1544;48.834;9.194;2022-11-20T03:55:41;7.60;52.00
3067;DHT22;1544;48.834;9.194;2022-11-20T03:58:16;7.60;52.10
3067;DHT22;1544;48.834;9.194;2022-11-20T04:00:51;7.60;52.20
3067;DHT22;1544;48.834;9.194;2022-11-20T04:03:26;7.60;51.80
3067;DHT22;1544;48.834;9.194;2022-11-20T04:06:09;7.60;51.40
3067;DHT22;1544;48.834;9.194;2022-11-20T04:08:48;7.60;51.60
3067;DHT22;1544;48.834;9.194;2022-11-20T04:11:30;7.60;51.60
3067;DHT22;1544;48.834;9.194;2022-11-20T04:14:11;7.60;51.90
3067;DHT22;1544;48.834;9.194;2022-11-20T04:16:48;7.50;52.00
3067;DHT22;1544;48.834;9.194;2022-11-20T04:19:22;7.60;52.10
3067;DHT22;1544;48.834;9.194;2022-11-20T04:21:58;7.60;51.60
3067;DHT22;1544;48.834;9.194;2022-11-20T04:24:33;7.70;50.70
3067;DHT22;1544;48.834;9.194;2022-11-20T04:27:08;7.60;50.00
3067;DHT22;1544;48.834;9.194;2022-11-20T04:29:43;7.70;50.10
3067;DHT22;1544;48.834;9.194;2022-11-20T04:32:18;7.70;50.00
3067;DHT22;1544;48.834;9.194;2022-11-20T04:34:53;7.70;50.00
3067;DHT22;1544;48.834;9.194;2022-11-20T04:37:28;7.70;50.20
3067;DHT22;1544;48.834;9.194;2022-11-20T04:40:03;7.70;50.10
3067;DHT22;1544;48.834;9.194;2022-11-20T04:42:39;7.70;50.20
3067;DHT22;1544;48.834;9.194;2022-11-20T04:45:13;7.70;49.60
3067;DHT22;1544;48.834;9.194;2022-11-20T04:47:49;7.70;49.50
3067;DHT22;1544;48.834;9.194;2022-11-20T04:50:24;7.60;49.50
3067;DHT22;1544;48.834;9.194;2022-11-20T04:52:59;7.70;49.60
3067;DHT22;1544;48.834;9.194;2022-11-20T04:55:34;7.70;49.60
3067;DHT22;1544;48.834;9.194;2022-11-20T04:58:09;7.70;49.40
3067;DHT22;1544;48.834;9.194;2022-11-20T05:00:44;7.70;49.50
3067;DHT22;1544;48.834;9.194;2022-11-20T05:03:19;7.70;49.40
3067;DHT22;1544;48.834;9.194;2022-11-20T05:05:54;7.70;49.00
3067;DHT22;1544;48.834;9.194;2022-11-20T05:08:30;7.80;49.20
3067;DHT22;1544;48.834;9.194;2022-11-20T05:11:10;7.80;48.80
3067;DHT22;1544;48.834;9.194;2022-11-20T05:13:51;7.70;48.40
3067;DHT22;1544;48.834;9.194;2022-11-20T05:16:26;7.70;48.00
3067;DHT22;1544;48.834;9.194;2022-11-20T05:19:01;7.70;47.90
3067;DHT22;1544;48.834;9.194;2022-11-20T05:21:36;7.80;47.50
3067;DHT22;1544;48.834;9.194;2022-11-20T05:24:11;7.80;47.50
3067;DHT22;1544;48.834;9.194;2022-11-20T05:26:46;7.80;47.50
3067;DHT22;1544;48.834;9.194;2022-11-20T05:29:21;7.80;47.40
3067;DHT22;1544;48.834;9.194;2022-11-20T05:31:57;7.80;47.60
3067;DHT22;1544;48.834;9.194;2022-11-20T05:34:32;7.80;47.80
3067;DHT22;1544;48.834;9.194;2022-11-20T05:37:07;7.80;47.30
3067;DHT22;1544;48.834;9.194;2022-11-20T05:39:42;7.80;47.00
3067;DHT22;1544;48.834;9.194;2022-11-20T05:42:17;7.90;47.00
3067;DHT22;1544;48.834;9.194;2022-11-20T05:45:07;7.90;47.00
3067;DHT22;1544;48.834;9.194;2022-11-20T05:47:42;7.90;47.20
3067;DHT22;1544;48.834;9.194;2022-11-20T05:50:17;7.90;47.00
3067;DHT22;1544;48.834;9.194;2022-11-20T05:52:52;7.90;47.10
3067;DHT22;1544;48.834;9.194;2022-11-20T05:55:27;7.90;47.20
3067;DHT22;1544;48.834;9.194;2022-11-20T05:58:02;8.00;46.60
3067;DHT22;1544;48.834;9.194;2022-11-20T06:00:37;7.90;46.40
3067;DHT22;1544;48.834;9.194;2022-11-20T06:03:12;8.00;46.90
3067;DHT22;1544;48.834;9.194;2022-11-20T06:05:47;8.00;46.90
3067;DHT22;1544;48.834;9.194;2022-11-20T06:08:22;8.00;47.00
3067;DHT22;1544;48.834;9.194;2022-11-20T06:10:57;8.00;47.70
3067;DHT22;1544;48.834;9.194;2022-11-20T06:13:33;8.00;47.10
3067;DHT22;1544;48.834;9.194;2022-11-20T06:16:17;8.00;47.20
3067;DHT22;1544;48.834;9.194;2022-11-20T06:18:53;8.00;47.10
3067;DHT22;1544;48.834;9.194;2022-11-20T06:21:28;8.00;47.00
3067;DHT22;1544;48.834;9.194;2022-11-20T06:24:04;8.10;46.70
3067;DHT22;1544;48.834;9.194;2022-11-20T06:26:39;8.10;46.40
3067;DHT22;1544;48.834;9.194;2022-11-20T06:29:14;8.10;46.70
3067;DHT22;1544;48.834;9.194;2022-11-20T06:31:49;8.10;46.40
3067;DHT22;1544;48.834;9.194;2022-11-20T06:34:24;8.00;46.40
3067;DHT22;1544;48.834;9.194;2022-11-20T06:36:59;8.00;46.90
3067;DHT22;1544;48.834;9.194;2022-11-20T06:39:34;8.00;46.80
3067;DHT22;1544;48.834;9.194;2022-11-20T06:42:09;8.00;46.60
3067;DHT22;1544;48.834;9.194;2022-11-20T06:44:44;8.00;46.50
3067;DHT22;1544;48.834;9.194;2022-11-20T06:47:19;8.00;46.80
3067;DHT22;1544;48.834;9.194;2022-11-20T06:49:56;8.10;46.60
3067;DHT22;1544;48.834;9.194;2022-11-20T06:52:31;8.10;46.90
3067;DHT22;1544;48.834;9.194;2022-11-20T06:55:06;8.10;46.40
3067;DHT22;1544;48.834;9.194;2022-11-20T06:57:41;8.10;46.50
3067;DHT22;1544;48.834;9.194;2022-11-20T07:00:17;8.10;46.30
3067;DHT22;1544;48.834;9.194;2022-11-20T07:02:52;8.10;46.20
3067;DHT22;1544;48.834;9.194;2022-11-20T07:05:27;8.10;46.30
3067;DHT22;1544;48.834;9.194;2022-11-20T07:08:03;8.10;46.30
3067;DHT22;1544;48.834;9.194;2022-11-20T07:10:38;8.10;46.30
3067;DHT22;1544;48.834;9.194;2022-11-20T07:13:14;8.10;46.50
3067;DHT22;1544;48.834;9.194;2022-11-20T07:15:48;8.20;46.80
3067;DHT22;1544;48.834;9.194;2022-11-20T07:18:23;8.20;46.50
3067;DHT22;1544;48.834;9.194;2022-11-20T07:21:07;8.20;46.40
3067;DHT22;1544;48.834;9.194;2022-11-20T07:23:43;8.30;46.00
3067;DHT22;1544;48.834;9.194;2022-11-20T07:26:18;8.30;45.70
3067;DHT22;1544;48.834;9.194;2022-11-20T07:28:54;8.30;45.60
3067;DHT22;1544;48.834;9.194;2022-11-20T07:31:29;8.30;45.80
3067;DHT22;1544;48.834;9.194;2022-11-20T07:34:04;8.30;45.60
3067;DHT22;1544;48.834;9.194;2022-11-20T07:36:39;8.30;44.90
3067;DHT22;1544;48.834;9.194;2022-11-20T07:39:14;8.30;44.80
3067;DHT22;1544;48.834;9.194;2022-11-20T07:41:49;8.30;45.00
3067;DHT22;1544;48.834;9.194;2022-11-20T07:44:24;8.40;45.10
3067;DHT22;1544;48.834;9.194;2022-11-20T07:46:59;8.40;45.20
3067;DHT22;1544;48.834;9.194;2022-11-20T07:49:34;8.50;45.10
3067;DHT22;1544;48.834;9.194;2022-11-20T07:52:09;8.50;45.30
3067;DHT22;1544;48.834;9.194;2022-11-20T07:54:44;8.60;45.00
3067;DHT22;1544;48.834;9.194;2022-11-20T07:57:19;8.70;44.40
3067;DHT22;1544;48.834;9.194;2022-11-20T08:00:06;8.70;44.50
3067;DHT22;1544;48.834;9.194;2022-11-20T08:02:47;8.70;44.80
3067;DHT22;1544;48.834;9.194;2022-11-20T08:05:22;8.70;44.40
3067;DHT22;1544;48.834;9.194;2022-11-20T08:07:57;8.70;44.50
3067;DHT22;1544;48.834;9.194;2022-11-20T08:10:32;8.70;44.40
3067;DHT22;1544;48.834;9.194;2022-11-20T08:13:08;8.70;44.20
3067;DHT22;1544;48.834;9.194;2022-11-20T08:16:02;8.80;44.00
3067;DHT22;1544;48.834;9.194;2022-11-20T08:18:37;8.80;43.60
3067;DHT22;1544;48.834;9.194;2022-11-20T08:21:12;8.80;43.90
3067;DHT22;1544;48.834;9.194;2022-11-20T08:23:47;8.80;43.60
3067;DHT22;1544;48.834;9.194;2022-11-20T08:26:22;8.90;43.60
3067;DHT22;1544;48.834;9.194;2022-11-20T08:28:58;8.90;43.30
3067;DHT22;1544;48.834;9.194;2022-11-20T08:31:33;9.00;43.00
3067;DHT22;1544;48.834;9.194;2022-11-20T08:34:08;9.00;42.90
3067;DHT22;1544;48.834;9.194;2022-11-20T08:36:46;9.00;42.80
3067;DHT22;1544;48.834;9.194;2022-11-20T08:39:21;9.00;43.00
3067;DHT22;1544;48.834;9.194;2022-11-20T08:41:57;9.00;42.60
3067;DHT22;1544;48.834;9.194;2022-11-20T08:44:32;9.10;42.70
3067;DHT22;1544;48.834;9.194;2022-11-20T08:47:07;9.20;42.30
3067;DHT22;1544;48.834;9.194;2022-11-20T08:49:42;9.30;42.00
3067;DHT22;1544;48.834;9.194;2022-11-20T08:52:17;9.40;41.40
3067;DHT22;1544;48.834;9.194;2022-11-20T08:54:52;9.40;41.40
3067;DHT22;1544;48.834;9.194;2022-11-20T08:57:27;9.50;41.20
3067;DHT22;1544;48.834;9.194;2022-11-20T09:00:04;9.50;41.30
3067;DHT22;1544;48.834;9.194;2022-11-20T09:02:41;9.60;40.80
3067;DHT22;1544;48.834;9.194;2022-11-20T09:05:16;9.60;41.00
3067;DHT22;1544;48.834;9.194;2022-11-20T09:07:51;9.60;40.30
3067;DHT22;1544;48.834;9.194;2022-11-20T09:10:26;9.60;39.90
3067;DHT22;1544;48.834;9.194;2022-11-20T09:13:02;9.60;39.90
3067;DHT22;1544;48.834;9.194;2022-11-20T09:15:37;9.60;40.30
3067;DHT22;1544;48.834;9.194;2022-11-20T09:18:12;9.60;40.60
3067;DHT22;1544;48.834;9.194;2022-11-20T09:20:47;9.60;39.90
3067;DHT22;1544;48.834;9.194;2022-11-20T09:23:23;9.60;40.10
3067;DHT22;1544;48.834;9.194;2022-11-20T09:26:02;9.60;40.30
3067;DHT22;1544;48.834;9.194;2022-11-20T09:28:41;9.60;40.10
3067;DHT22;1544;48.834;9.194;2022-11-20T09:31:23;9.60;40.50
3067;DHT22;1544;48.834;9.194;2022-11-20T09:34:00;9.60;40.30
3067;DHT22;1544;48.834;9.194;2022-11-20T09:36:36;9.60;40.60
3067;DHT22;1544;48.834;9.194;2022-11-20T09:39:11;9.50;40.70
3067;DHT22;1544;48.834;9.194;2022-11-20T09:41:54;9.60;39.90
3067;DHT22;1544;48.834;9.194;2022-11-20T09:45:06;9.50;40.20
3067;DHT22;1544;48.834;9.194;2022-11-20T09:48:23;9.50;40.50
3067;DHT22;1544;48.834;9.194;2022-11-20T09:57:10;9.40;41.10
3067;DHT22;1544;48.834;9.194;2022-11-20T09:59:52;9.40;41.00
3067;DHT22;1544;48.834;9.194;2022-11-20T10:05:54;9.40;42.50
3067;DHT22;1544;48.834;9.194;2022-11-20T10:08:43;9.30;44.00
3067;DHT22;1544;48.834;9.194;2022-11-20T10:11:37;9.30;44.80
3067;DHT22;1544;48.834;9.194;2022-11-20T10:27:44;9.30;46.00
3067;DHT22;1544;48.834;9.194;2022-11-20T10:30:41;9.20;47.30
3067;DHT22;1544;48.834;9.194;2022-11-20T10:33:31;9.20;48.20
3067;DHT22;1544;48.834;9.194;2022-11-20T10:36:37;9.20;49.00
3067;DHT22;1544;48.834;9.194;2022-11-20T10:42:44;9.10;52.00
3067;DHT22;1544;48.834;9.194;2022-11-20T11:00:12;8.70;67.00
3067;DHT22;1544;48.834;9.194;2022-11-20T11:02:50;8.70;67.00
3067;DHT22;1544;48.834;9.194;2022-11-20T11:05:43;8.70;66.10
3067;DHT22;1544;48.834;9.194;2022-11-20T11:08:26;8.60;63.80
3067;DHT22;1544;48.834;9.194;2022-11-20T11:11:18;8.60;61.20
3067;DHT22;1544;48.834;9.194;2022-11-20T11:13:53;8.90;63.60
3067;DHT22;1544;48.834;9.194;2022-11-20T11:16:56;8.70;63.80
3067;DHT22;1544;48.834;9.194;2022-11-20T11:19:32;8.80;64.50
3067;DHT22;1544;48.834;9.194;2022-11-20T11:22:13;8.90;64.30
3067;DHT22;1544;48.834;9.194;2022-11-20T11:24:52;9.00;62.80
3067;DHT22;1544;48.834;9.194;2022-11-20T11:27:28;9.00;59.10
3067;DHT22;1544;48.834;9.194;2022-11-20T11:30:12;9.00;58.00
3067;DHT22;1544;48.834;9.194;2022-11-20T11:33:03;9.20;55.10
3067;DHT22;1544;48.834;9.194;2022-11-20T11:35:52;9.30;54.40
3067;DHT22;1544;48.834;9.194;2022-11-20T11:38:35;9.50;55.00
3067;DHT22;1544;48.834;9.194;2022-11-20T11:41:20;9.70;54.10
3067;DHT22;1544;48.834;9.194;2022-11-20T11:44:01;9.90;54.50
3067;DHT22;1544;48.834;9.194;2022-11-20T11:47:17;10.10;51.10
3067;DHT22;1544;48.834;9.194;2022-11-20T11:53:14;10.60;44.90
3067;DHT22;1544;48.834;9.194;2022-11-20T11:56:08;10.80;44.20
3067;DHT22;1544;48.834;9.194;2022-11-20T11:58:55;11.00;42.20
3067;DHT22;1544;48.834;9.194;2022-11-20T12:01:50;11.30;42.80
3067;DHT22;1544;48.834;9.194;2022-11-20T12:04:46;10.90;42.10
3067;DHT22;1544;48.834;9.194;2022-11-20T12:07:37;11.70;38.90
3067;DHT22;1544;48.834;9.194;2022-11-20T12:16:22;11.50;38.10
3067;DHT22;1544;48.834;9.194;2022-11-20T12:18:58;11.50;38.20
3067;DHT22;1544;48.834;9.194;2022-11-20T12:21:49;11.60;38.20
3067;DHT22;1544;48.834;9.194;2022-11-20T12:24:58;11.70;37.60
3067;DHT22;1544;48.834;9.194;2022-11-20T12:33:58;12.00;36.10
3067;DHT22;1544;48.834;9.194;2022-11-20T12:40:08;12.10;33.70
3067;DHT22;1544;48.834;9.194;2022-11-20T12:46:47;12.00;33.20
3067;DHT22;1544;48.834;9.194;2022-11-20T12:49:40;11.80;31.60
3067;DHT22;1544;48.834;9.194;2022-11-20T12:52:38;11.50;32.10
3067;DHT22;1544;48.834;9.194;2022-11-20T12:55:47;11.30;32.30
3067;DHT22;1544;48.834;9.194;2022-11-20T12:58:47;11.00;32.40
3067;DHT22;1544;48.834;9.194;2022-11-20T13:01:37;10.90;32.20
3067;DHT22;1544;48.834;9.194;2022-11-20T13:04:24;10.90;32.20
3067;DHT22;1544;48.834;9.194;2022-11-20T13:07:03;10.80;32.20
3067;DHT22;1544;48.834;9.194;2022-11-20T13:09:44;10.70;32.70
3067;DHT22;1544;48.834;9.194;2022-11-20T13:12:35;10.70;31.70
3067;DHT22;1544;48.834;9.194;2022-11-20T13:15:28;10.60;32.10
3067;DHT22;1544;48.834;9.194;2022-11-20T13:18:10;10.60;31.40
3067;DHT22;1544;48.834;9.194;2022-11-20T13:20:46;10.70;31.40
3067;DHT22;1544;48.834;9.194;2022-11-20T13:23:27;10.60;32.00
3067;DHT22;1544;48.834;9.194;2022-11-20T13:26:13;10.50;31.90
3067;DHT22;1544;48.834;9.194;2022-11-20T13:29:08;10.60;31.40
3067;DHT22;1544;48.834;9.194;2022-11-20T13:31:47;10.80;31.70
3067;DHT22;1544;48.834;9.194;2022-11-20T13:34:24;11.00;32.70
3067;DHT22;1544;48.834;9.194;2022-11-20T13:37:00;11.30;32.30
3067;DHT22;1544;48.834;9.194;2022-11-20T13:39:36;11.60;31.30
3067;DHT22;1544;48.834;9.194;2022-11-20T13:44:53;12.00;32.20
3067;DHT22;1544;48.834;9.194;2022-11-20T13:47:29;12.20;31.80
3067;DHT22;1544;48.834;9.194;2022-11-20T13:50:04;12.30;30.60
3067;DHT22;1544;48.834;9.194;2022-11-20T13:56:29;12.00;30.10
3067;DHT22;1544;48.834;9.194;2022-11-20T14:02:59;11.80;30.90
3067;DHT22;1544;48.834;9.194;2022-11-20T14:05:39;11.70;31.30
3067;DHT22;1544;48.834;9.194;2022-11-20T14:08:38;11.80;30.60
3067;DHT22;1544;48.834;9.194;2022-11-20T14:11:23;11.80;30.70
3067;DHT22;1544;48.834;9.194;2022-11-20T14:14:03;11.70;30.50
3067;DHT22;1544;48.834;9.194;2022-11-20T14:16:39;11.50;30.90
3067;DHT22;1544;48.834;9.194;2022-11-20T14:22:08;11.30;31.00
3067;DHT22;1544;48.834;9.194;2022-11-20T14:25:00;11.10;31.30
3067;DHT22;1544;48.834;9.194;2022-11-20T14:27:58;10.80;31.40
3067;DHT22;1544;48.834;9.194;2022-11-20T14:30:38;10.80;32.00
3067;DHT22;1544;48.834;9.194;2022-11-20T14:33:19;10.80;32.30
3067;DHT22;1544;48.834;9.194;2022-11-20T14:35:56;10.80;32.40
3067;DHT22;1544;48.834;9.194;2022-11-20T14:38:32;10.70;32.60
3067;DHT22;1544;48.834;9.194;2022-11-20T14:41:08;10.60;32.80
3067;DHT22;1544;48.834;9.194;2022-11-20T14:43:56;10.50;33.20
3067;DHT22;1544;48.834;9.194;2022-11-20T14:46:33;10.40;33.20
3067;DHT22;1544;48.834;9.194;2022-11-20T14:49:09;10.40;33.30
3067;DHT22;1544;48.834;9.194;2022-11-20T14:51:44;10.40;33.20
3067;DHT22;1544;48.834;9.194;2022-11-20T14:54:21;10.40;33.40
3067;DHT22;1544;48.834;9.194;2022-11-20T14:57:02;10.40;33.60
3067;DHT22;1544;48.834;9.194;2022-11-20T14:59:38;10.40;33.80
3067;DHT22;1544;48.834;9.194;2022-11-20T15:02:13;10.30;33.90
3067;DHT22;1544;48.834;9.194;2022-11-20T15:04:49;10.20;34.20
3067;DHT22;1544;48.834;9.194;2022-11-20T15:07:26;10.20;34.40
3067;DHT22;1544;48.834;9.194;2022-11-20T15:10:09;11.30;35.60
3067;DHT22;1544;48.834;9.194;2022-11-20T15:13:00;10.10;34.80
3067;DHT22;1544;48.834;9.194;2022-11-20T15:15:44;10.10;35.00
3067;DHT22;1544;48.834;9.194;2022-11-20T15:18:24;10.00;34.90
3067;DHT22;1544;48.834;9.194;2022-11-20T15:21:11;10.00;35.00
3067;DHT22;1544;48.834;9.194;2022-11-20T15:23:47;9.90;35.80
3067;DHT22;1544;48.834;9.194;2022-11-20T15:26:27;9.80;35.80
3067;DHT22;1544;48.834;9.194;2022-11-20T15:29:02;9.70;36.10
3067;DHT22;1544;48.834;9.194;2022-11-20T15:31:38;9.70;36.30
3067;DHT22;1544;48.834;9.194;2022-11-20T15:34:15;9.60;36.60
3067;DHT22;1544;48.834;9.194;2022-11-20T15:36:51;9.60;36.60
3067;DHT22;1544;48.834;9.194;2022-11-20T15:39:26;9.50;36.70
3067;DHT22;1544;48.834;9.194;2022-11-20T15:42:01;9.40;36.80
3067;DHT22;1544;48.834;9.194;2022-11-20T15:44:35;9.30;36.90
3067;DHT22;1544;48.834;9.194;2022-11-20T15:47:10;9.30;37.00
3067;DHT22;1544;48.834;9.194;2022-11-20T15:49:45;9.20;37.20
3067;DHT22;1544;48.834;9.194;2022-11-20T15:52:20;9.10;37.20
3067;DHT22;1544;48.834;9.194;2022-11-20T15:54:55;9.10;37.20
3067;DHT22;1544;48.834;9.194;2022-11-20T15:57:30;9.00;37.30
3067;DHT22;1544;48.834;9.194;2022-11-20T16:00:07;9.00;37.40
3067;DHT22;1544;48.834;9.194;2022-11-20T16:02:44;9.00;37.50
3067;DHT22;1544;48.834;9.194;2022-11-20T16:05:19;9.00;37.70
3067;DHT22;1544;48.834;9.194;2022-11-20T16:07:54;9.00;37.90
3067;DHT22;1544;48.834;9.194;2022-11-20T16:10:29;9.00;37.90
3067;DHT22;1544;48.834;9.194;2022-11-20T16:13:04;8.90;38.00
3067;DHT22;1544;48.834;9.194;2022-11-20T16:15:59;8.90;38.00
3067;DHT22;1544;48.834;9.194;2022-11-20T16:18:38;8.90;38.20
3067;DHT22;1544;48.834;9.194;2022-11-20T16:21:13;8.90;38.30
3067;DHT22;1544;48.834;9.194;2022-11-20T16:23:48;8.80;38.40
3067;DHT22;1544;48.834;9.194;2022-11-20T16:26:23;8.80;38.60
3067;DHT22;1544;48.834;9.194;2022-11-20T16:28:59;8.80;38.70
3067;DHT22;1544;48.834;9.194;2022-11-20T16:31:34;8.80;38.70
3067;DHT22;1544;48.834;9.194;2022-11-20T16:34:10;8.90;38.80
3067;DHT22;1544;48.834;9.194;2022-11-20T16:36:46;8.80;38.90
3067;DHT22;1544;48.834;9.194;2022-11-20T16:39:21;8.90;39.00
3067;DHT22;1544;48.834;9.194;2022-11-20T16:41:57;8.80;38.90
3067;DHT22;1544;48.834;9.194;2022-11-20T16:44:32;8.80;39.20
3067;DHT22;1544;48.834;9.194;2022-11-20T16:47:08;8.80;39.20
3067;DHT22;1544;48.834;9.194;2022-11-20T16:49:43;8.70;39.70
3067;DHT22;1544;48.834;9.194;2022-11-20T16:52:18;8.80;39.50
3067;DHT22;1544;48.834;9.194;2022-11-20T16:54:53;8.80;39.50
3067;DHT22;1544;48.834;9.194;2022-11-20T16:57:28;8.80;39.50
3067;DHT22;1544;48.834;9.194;2022-11-20T17:00:04;8.80;39.70
3067;DHT22;1544;48.834;9.194;2022-11-20T17:02:40;8.80;39.70
3067;DHT22;1544;48.834;9.194;2022-11-20T17:05:15;8.80;40.00
3067;DHT22;1544;48.834;9.194;2022-11-20T17:07:49;8.80;40.20
3067;DHT22;1544;48.834;9.194;2022-11-20T17:10:25;8.80;40.20
3067;DHT22;1544;48.834;9.194;2022-11-20T17:13:00;8.80;40.20
3067;DHT22;1544;48.834;9.194;2022-11-20T17:15:35;8.80;40.10
3067;DHT22;1544;48.834;9.194;2022-11-20T17:18:10;8.80;40.00
3067;DHT22;1544;48.834;9.194;2022-11-20T17:20:51;8.80;40.00
3067;DHT22;1544;48.834;9.194;2022-11-20T17:23:45;8.80;40.00
3067;DHT22;1544;48.834;9.194;2022-11-20T17:26:22;8.80;40.10
3067;DHT22;1544;48.834;9.194;2022-11-20T17:28:58;8.80;40.10
3067;DHT22;1544;48.834;9.194;2022-11-20T17:31:35;8.80;40.00
3067;DHT22;1544;48.834;9.194;2022-11-20T17:34:13;8.70;40.00
3067;DHT22;1544;48.834;9.194;2022-11-20T17:36:49;8.80;40.10
3067;DHT22;1544;48.834;9.194;2022-11-20T17:39:25;8.80;40.10
3067;DHT22;1544;48.834;9.194;2022-11-20T17:42:00;8.70;40.10
3067;DHT22;1544;48.834;9.194;2022-11-20T17:44:53;8.70;40.00
3067;DHT22;1544;48.834;9.194;2022-11-20T17:47:29;8.70;40.10
3067;DHT22;1544;48.834;9.194;2022-11-20T17:50:04;8.80;40.20
3067;DHT22;1544;48.834;9.194;2022-11-20T17:52:39;8.80;40.80
3067;DHT22;1544;48.834;9.194;2022-11-20T17:55:15;8.80;40.70
3067;DHT22;1544;48.834;9.194;2022-11-20T17:57:50;8.70;40.30
3067;DHT22;1544;48.834;9.194;2022-11-20T18:00:30;8.70;40.70
3067;DHT22;1544;48.834;9.194;2022-11-20T18:03:06;8.70;40.40
3067;DHT22;1544;48.834;9.194;2022-11-20T18:05:41;9.20;40.70
3067;DHT22;1544;48.834;9.194;2022-11-20T18:08:16;8.80;40.20
3067;DHT22;1544;48.834;9.194;2022-11-20T18:10:51;8.80;39.80
3067;DHT22;1544;48.834;9.194;2022-11-20T18:13:26;8.80;39.90
3067;DHT22;1544;48.834;9.194;2022-11-20T18:16:22;8.80;39.60
3067;DHT22;1544;48.834;9.194;2022-11-20T18:18:58;8.80;39.30
3067;DHT22;1544;48.834;9.194;2022-11-20T18:21:33;8.80;39.40
3067;DHT22;1544;48.834;9.194;2022-11-20T18:24:08;8.80;39.20
3067;DHT22;1544;48.834;9.194;2022-11-20T18:26:44;8.80;39.40
3067;DHT22;1544;48.834;9.194;2022-11-20T18:29:19;8.80;39.60
3067;DHT22;1544;48.834;9.194;2022-11-20T18:31:54;8.80;39.20
3067;DHT22;1544;48.834;9.194;2022-11-20T18:34:29;8.90;38.70
3067;DHT22;1544;48.834;9.194;2022-11-20T18:37:04;8.90;38.60
3067;DHT22;1544;48.834;9.194;2022-11-20T18:39:40;8.80;38.30
3067;DHT22;1544;48.834;9.194;2022-11-20T18:42:15;8.80;38.20
3067;DHT22;1544;48.834;9.194;2022-11-20T18:45:09;8.80;38.10
3067;DHT22;1544;48.834;9.194;2022-11-20T18:47:44;8.80;38.30